sensor_id;sensor_type;location;lat;lon;timestamp;P1;durP1;ratioP1;P2;durP2;ratioP2
8435;SDS011;4255;48.730;9.156;2023-04-15T00:00:02;27.88;;;15.32;;
8435;SDS011;4255;48.730;9.156;2023-04-15T00:02:29;19.92;;;12.48;;
8435;SDS011;4255;48.730;9.156;2023-04-15T00:04:55;20.10;;;11.95;;
8435;SDS011;4255;48.730;9.156;2023-04-15T00:07:20;16.97;;;11.97;;
8435;SDS011;4255;48.730;9.156;2023-04-15T00:09:46;12.40;;;10.30;;
8435;SDS011;4255;48.730;9.156;2023-04-15T00:12:11;13.87;;;10.33;;
8435;SDS011;4255;48.730;9.156;2023-04-15T00:14:37;13.73;;;9.43;;
8435;SDS011;4255;48.730;9.156;2023-04-15T00:17:03;13.67;;;9.53;;
8435;SDS011;4255;48.730;9.156;2023-04-15T00:19:29;18.17;;;11.50;;
8435;SDS011;4255;48.730;9.156;2023-04-15T00:21:56;13.55;;;10.32;;
8435;SDS011;4255;48.730;9.156;2023-04-15T00:24:22;13.50;;;9.93;;
8435;SDS011;4255;48.730;9.156;2023-04-15T00:26:48;12.25;;;9.85;;
8435;SDS011;4255;48.730;9.156;2023-04-15T00:29:13;12.17;;;10.57;;
8435;SDS011;4255;48.730;9.156;2023-04-15T00:31:39;13.00;;;9.33;;
8435;SDS011;4255;48.730;9.156;2023-04-15T00:34:06;13.10;;;8.45;;
8435;SDS011;4255;48.730;9.156;2023-04-15T00:36:32;13.20;;;9.07;;
8435;SDS011;4255;48.730;9.156;2023-04-15T00:38:59;12.05;;;9.50;;
8435;SDS011;4255;48.730;9.156;2023-04-15T00:41:24;14.10;;;10.00;;
8435;SDS011;4255;48.730;9.156;2023-04-15T00:43:50;16.77;;;11.53;;
8435;SDS011;4255;48.730;9.156;2023-04-15T00:46:16;19.20;;;10.75;;
8435;SDS011;4255;48.730;9.156;2023-04-15T00:48:45;14.25;;;10.50;;
8435;SDS011;4255;48.730;9.156;2023-04-15T00:51:11;12.02;;;10.18;;
8435;SDS011;4255;48.730;9.156;2023-04-15T00:53:38;15.43;;;11.18;;
8435;SDS011;4255;48.730;9.156;2023-04-15T00:56:05;18.50;;;9.60;;
8435;SDS011;4255;48.730;9.156;2023-04-15T00:58:31;14.90;;;7.47;;
8435;SDS011;4255;48.730;9.156;2023-04-15T01:00:57;11.77;;;9.50;;
8435;SDS011;4255;48.730;9.156;2023-04-15T01:03:23;14.57;;;8.20;;
8435;SDS011;4255;48.730;9.156;2023-04-15T01:05:49;11.30;;;8.33;;
8435;SDS011;4255;48.730;9.156;2023-04-15T01:08:21;11.25;;;8.38;;
8435;SDS011;4255;48.730;9.156;2023-04-15T01:10:57;10.13;;;7.22;;
8435;SDS011;4255;48.730;9.156;2023-04-15T01:13:24;9.32;;;8.27;;
8435;SDS011;4255;48.730;9.156;2023-04-15T01:15:50;7.10;;;6.15;;
8435;SDS011;4255;48.730;9.156;2023-04-15T01:18:17;8.77;;;7.97;;
8435;SDS011;4255;48.730;9.156;2023-04-15T01:20:43;11.90;;;6.10;;
8435;SDS011;4255;48.730;9.156;2023-04-15T01:23:10;13.25;;;8.38;;
8435;SDS011;4255;48.730;9.156;2023-04-15T01:25:35;9.07;;;7.50;;
8435;SDS011;4255;48.730;9.156;2023-04-15T01:28:01;13.30;;;8.60;;
8435;SDS011;4255;48.730;9.156;2023-04-15T01:30:27;8.40;;;6.30;;
8435;SDS011;4255;48.730;9.156;2023-04-15T01:32:53;10.73;;;6.70;;
8435;SDS011;4255;48.730;9.156;2023-04-15T01:35:18;10.23;;;7.00;;
8435;SDS011;4255;48.730;9.156;2023-04-15T01:37:45;13.07;;;8.40;;
8435;SDS011;4255;48.730;9.156;2023-04-15T01:40:11;9.73;;;8.75;;
8435;SDS011;4255;48.730;9.156;2023-04-15T01:42:37;10.25;;;9.25;;
8435;SDS011;4255;48.730;9.156;2023-04-15T01:45:03;11.93;;;8.40;;
8435;SDS011;4255;48.730;9.156;2023-04-15T01:47:30;10.88;;;9.18;;
8435;SDS011;4255;48.730;9.156;2023-04-15T01:49:56;11.17;;;8.60;;
8435;SDS011;4255;48.730;9.156;2023-04-15T01:52:21;12.00;;;8.30;;
8435;SDS011;4255;48.730;9.156;2023-04-15T01:54:47;14.20;;;8.67;;
8435;SDS011;4255;48.730;9.156;2023-04-15T01:57:13;9.53;;;7.10;;
8435;SDS011;4255;48.730;9.156;2023-04-15T01:59:38;9.90;;;7.77;;
8435;SDS011;4255;48.730;9.156;2023-04-15T02:02:05;10.45;;;7.55;;
8435;SDS011;4255;48.730;9.156;2023-04-15T02:04:30;9.20;;;7.20;;
8435;SDS011;4255;48.730;9.156;2023-04-15T02:06:56;7.60;;;6.90;;
8435;SDS011;4255;48.730;9.156;2023-04-15T02:09:22;8.33;;;7.53;;
8435;SDS011;4255;48.730;9.156;2023-04-15T02:11:47;7.93;;;7.13;;
8435;SDS011;4255;48.730;9.156;2023-04-15T02:14:13;14.27;;;8.10;;
8435;SDS011;4255;48.730;9.156;2023-04-15T02:16:39;11.73;;;8.50;;
8435;SDS011;4255;48.730;9.156;2023-04-15T02:19:05;11.48;;;8.35;;
8435;SDS011;4255;48.730;9.156;2023-04-15T02:21:30;8.50;;;7.13;;
8435;SDS011;4255;48.730;9.156;2023-04-15T02:23:56;8.53;;;6.93;;
8435;SDS011;4255;48.730;9.156;2023-04-15T02:26:22;15.37;;;8.90;;
8435;SDS011;4255;48.730;9.156;2023-04-15T02:28:49;9.18;;;7.10;;
8435;SDS011;4255;48.730;9.156;2023-04-15T02:31:17;13.85;;;6.53;;
8435;SDS011;4255;48.730;9.156;2023-04-15T02:33:43;11.90;;;6.80;;
8435;SDS011;4255;48.730;9.156;2023-04-15T02:36:09;7.73;;;6.13;;
8435;SDS011;4255;48.730;9.156;2023-04-15T02:38:36;14.35;;;6.28;;
8435;SDS011;4255;48.730;9.156;2023-04-15T02:41:04;7.38;;;6.35;;
8435;SDS011;4255;48.730;9.156;2023-04-15T02:43:29;11.03;;;7.07;;
8435;SDS011;4255;48.730;9.156;2023-04-15T02:45:55;11.47;;;6.60;;
8435;SDS011;4255;48.730;9.156;2023-04-15T02:48:21;8.50;;;6.40;;
8435;SDS011;4255;48.730;9.156;2023-04-15T02:50:46;7.23;;;6.47;;
8435;SDS011;4255;48.730;9.156;2023-04-15T02:53:12;8.87;;;6.93;;
8435;SDS011;4255;48.730;9.156;2023-04-15T02:55:38;10.57;;;8.60;;
8435;SDS011;4255;48.730;9.156;2023-04-15T02:58:04;14.93;;;10.90;;
8435;SDS011;4255;48.730;9.156;2023-04-15T03:00:31;13.07;;;9.25;;
8435;SDS011;4255;48.730;9.156;2023-04-15T03:03:05;13.57;;;10.13;;
8435;SDS011;4255;48.730;9.156;2023-04-15T03:05:31;10.25;;;8.45;;
8435;SDS011;4255;48.730;9.156;2023-04-15T03:07:57;11.67;;;8.70;;
8435;SDS011;4255;48.730;9.156;2023-04-15T03:10:22;10.00;;;7.03;;
8435;SDS011;4255;48.730;9.156;2023-04-15T03:12:48;13.40;;;8.23;;
8435;SDS011;4255;48.730;9.156;2023-04-15T03:15:13;10.70;;;7.90;;
8435;SDS011;4255;48.730;9.156;2023-04-15T03:17:39;9.73;;;7.77;;
8435;SDS011;4255;48.730;9.156;2023-04-15T03:20:05;7.60;;;6.90;;
8435;SDS011;4255;48.730;9.156;2023-04-15T03:22:31;12.23;;;7.68;;
8435;SDS011;4255;48.730;9.156;2023-04-15T03:24:57;7.35;;;6.75;;
8435;SDS011;4255;48.730;9.156;2023-04-15T03:27:23;9.07;;;7.07;;
8435;SDS011;4255;48.730;9.156;2023-04-15T03:29:49;7.32;;;6.28;;
8435;SDS011;4255;48.730;9.156;2023-04-15T03:32:15;8.95;;;7.13;;
8435;SDS011;4255;48.730;9.156;2023-04-15T03:34:41;11.53;;;6.10;;
8435;SDS011;4255;48.730;9.156;2023-04-15T03:37:07;9.73;;;7.30;;
8435;SDS011;4255;48.730;9.156;2023-04-15T03:39:32;8.87;;;6.00;;
8435;SDS011;4255;48.730;9.156;2023-04-15T03:41:58;7.53;;;6.63;;
8435;SDS011;4255;48.730;9.156;2023-04-15T03:44:25;7.35;;;6.07;;
8435;SDS011;4255;48.730;9.156;2023-04-15T03:46:51;7.30;;;6.60;;
8435;SDS011;4255;48.730;9.156;2023-04-15T03:49:17;7.07;;;5.67;;
8435;SDS011;4255;48.730;9.156;2023-04-15T03:51:43;7.43;;;5.63;;
8435;SDS011;4255;48.730;9.156;2023-04-15T03:54:09;7.30;;;6.40;;
8435;SDS011;4255;48.730;9.156;2023-04-15T03:56:35;9.20;;;6.60;;
8435;SDS011;4255;48.730;9.156;2023-04-15T03:59:01;8.60;;;7.13;;
8435;SDS011;4255;48.730;9.156;2023-04-15T04:01:27;14.37;;;6.23;;
8435;SDS011;4255;48.730;9.156;2023-04-15T04:03:52;7.67;;;6.50;;
8435;SDS011;4255;48.730;9.156;2023-04-15T04:06:18;8.07;;;7.07;;
8435;SDS011;4255;48.730;9.156;2023-04-15T04:08:44;8.20;;;6.97;;
8435;SDS011;4255;48.730;9.156;2023-04-15T04:11:10;8.07;;;7.27;;
8435;SDS011;4255;48.730;9.156;2023-04-15T04:13:35;11.37;;;7.63;;
8435;SDS011;4255;48.730;9.156;2023-04-15T04:16:01;9.00;;;6.90;;
8435;SDS011;4255;48.730;9.156;2023-04-15T04:18:28;8.40;;;6.35;;
8435;SDS011;4255;48.730;9.156;2023-04-15T04:20:55;10.32;;;6.55;;
8435;SDS011;4255;48.730;9.156;2023-04-15T04:23:20;8.23;;;6.20;;
8435;SDS011;4255;48.730;9.156;2023-04-15T04:25:46;6.30;;;5.60;;
8435;SDS011;4255;48.730;9.156;2023-04-15T04:28:12;6.10;;;5.50;;
8435;SDS011;4255;48.730;9.156;2023-04-15T04:30:37;8.67;;;6.33;;
8435;SDS011;4255;48.730;9.156;2023-04-15T04:33:03;8.82;;;6.22;;
8435;SDS011;4255;48.730;9.156;2023-04-15T04:35:29;6.83;;;6.10;;
8435;SDS011;4255;48.730;9.156;2023-04-15T04:37:57;7.63;;;5.43;;
8435;SDS011;4255;48.730;9.156;2023-04-15T04:40:23;7.73;;;5.30;;
8435;SDS011;4255;48.730;9.156;2023-04-15T04:42:48;7.77;;;6.33;;
8435;SDS011;4255;48.730;9.156;2023-04-15T04:45:14;12.80;;;6.30;;
8435;SDS011;4255;48.730;9.156;2023-04-15T04:47:39;13.77;;;5.90;;
8435;SDS011;4255;48.730;9.156;2023-04-15T04:50:05;9.67;;;7.57;;
8435;SDS011;4255;48.730;9.156;2023-04-15T04:52:32;7.60;;;6.40;;
8435;SDS011;4255;48.730;9.156;2023-04-15T04:54:57;9.97;;;7.20;;
8435;SDS011;4255;48.730;9.156;2023-04-15T04:57:23;17.27;;;7.40;;
8435;SDS011;4255;48.730;9.156;2023-04-15T04:59:48;7.33;;;6.57;;
8435;SDS011;4255;48.730;9.156;2023-04-15T05:02:14;9.17;;;6.50;;
8435;SDS011;4255;48.730;9.156;2023-04-15T05:04:40;8.00;;;7.20;;
8435;SDS011;4255;48.730;9.156;2023-04-15T05:07:05;8.90;;;6.37;;
8435;SDS011;4255;48.730;9.156;2023-04-15T05:09:31;7.53;;;6.47;;
8435;SDS011;4255;48.730;9.156;2023-04-15T05:12:00;7.82;;;7.03;;
8435;SDS011;4255;48.730;9.156;2023-04-15T05:14:25;9.13;;;6.53;;
8435;SDS011;4255;48.730;9.156;2023-04-15T05:16:51;7.03;;;6.27;;
8435;SDS011;4255;48.730;9.156;2023-04-15T05:19:20;10.77;;;6.53;;
8435;SDS011;4255;48.730;9.156;2023-04-15T05:21:45;8.55;;;7.18;;
8435;SDS011;4255;48.730;9.156;2023-04-15T05:24:11;8.83;;;6.37;;
8435;SDS011;4255;48.730;9.156;2023-04-15T05:26:36;7.23;;;6.30;;
8435;SDS011;4255;48.730;9.156;2023-04-15T05:29:02;9.90;;;6.23;;
8435;SDS011;4255;48.730;9.156;2023-04-15T05:31:28;8.27;;;7.43;;
8435;SDS011;4255;48.730;9.156;2023-04-15T05:33:53;7.90;;;6.20;;
8435;SDS011;4255;48.730;9.156;2023-04-15T05:36:19;8.97;;;7.30;;
8435;SDS011;4255;48.730;9.156;2023-04-15T05:38:45;10.33;;;8.10;;
8435;SDS011;4255;48.730;9.156;2023-04-15T05:41:10;7.93;;;7.10;;
8435;SDS011;4255;48.730;9.156;2023-04-15T05:43:36;9.90;;;7.30;;
8435;SDS011;4255;48.730;9.156;2023-04-15T05:46:02;11.03;;;9.67;;
8435;SDS011;4255;48.730;9.156;2023-04-15T05:48:28;10.33;;;7.43;;
8435;SDS011;4255;48.730;9.156;2023-04-15T05:50:53;10.40;;;7.70;;
8435;SDS011;4255;48.730;9.156;2023-04-15T05:53:19;9.30;;;7.20;;
8435;SDS011;4255;48.730;9.156;2023-04-15T05:55:44;21.53;;;9.17;;
8435;SDS011;4255;48.730;9.156;2023-04-15T05:58:10;15.63;;;8.63;;
8435;SDS011;4255;48.730;9.156;2023-04-15T06:00:36;24.67;;;11.63;;
8435;SDS011;4255;48.730;9.156;2023-04-15T06:03:02;13.40;;;10.05;;
8435;SDS011;4255;48.730;9.156;2023-04-15T06:05:28;16.13;;;10.23;;
8435;SDS011;4255;48.730;9.156;2023-04-15T06:07:53;13.93;;;9.00;;
8435;SDS011;4255;48.730;9.156;2023-04-15T06:10:19;16.40;;;8.13;;
8435;SDS011;4255;48.730;9.156;2023-04-15T06:12:45;11.47;;;9.10;;
8435;SDS011;4255;48.730;9.156;2023-04-15T06:15:10;10.40;;;7.70;;
8435;SDS011;4255;48.730;9.156;2023-04-15T06:17:36;10.67;;;7.80;;
8435;SDS011;4255;48.730;9.156;2023-04-15T06:20:02;9.27;;;7.57;;
8435;SDS011;4255;48.730;9.156;2023-04-15T06:22:28;11.40;;;9.07;;
8435;SDS011;4255;48.730;9.156;2023-04-15T06:24:54;12.57;;;7.63;;
8435;SDS011;4255;48.730;9.156;2023-04-15T06:27:20;10.67;;;8.07;;
8435;SDS011;4255;48.730;9.156;2023-04-15T06:29:47;8.98;;;7.65;;
8435;SDS011;4255;48.730;9.156;2023-04-15T06:32:12;12.50;;;8.23;;
8435;SDS011;4255;48.730;9.156;2023-04-15T06:34:38;14.00;;;7.90;;
8435;SDS011;4255;48.730;9.156;2023-04-15T06:37:03;8.17;;;7.20;;
8435;SDS011;4255;48.730;9.156;2023-04-15T06:39:29;9.98;;;8.13;;
8435;SDS011;4255;48.730;9.156;2023-04-15T06:41:56;11.07;;;7.40;;
8435;SDS011;4255;48.730;9.156;2023-04-15T06:44:22;10.53;;;7.30;;
8435;SDS011;4255;48.730;9.156;2023-04-15T06:46:47;11.30;;;7.33;;
8435;SDS011;4255;48.730;9.156;2023-04-15T06:49:13;9.67;;;6.30;;
8435;SDS011;4255;48.730;9.156;2023-04-15T06:51:39;7.07;;;6.37;;
8435;SDS011;4255;48.730;9.156;2023-04-15T06:54:06;13.38;;;7.63;;
8435;SDS011;4255;48.730;9.156;2023-04-15T06:56:32;14.37;;;7.43;;
8435;SDS011;4255;48.730;9.156;2023-04-15T06:58:57;13.40;;;7.37;;
8435;SDS011;4255;48.730;9.156;2023-04-15T07:01:23;8.80;;;6.47;;
8435;SDS011;4255;48.730;9.156;2023-04-15T07:03:49;6.93;;;6.00;;
8435;SDS011;4255;48.730;9.156;2023-04-15T07:06:14;12.77;;;6.47;;
8435;SDS011;4255;48.730;9.156;2023-04-15T07:08:40;9.73;;;6.20;;
8435;SDS011;4255;48.730;9.156;2023-04-15T07:11:06;9.00;;;5.83;;
8435;SDS011;4255;48.730;9.156;2023-04-15T07:13:32;11.17;;;6.00;;
8435;SDS011;4255;48.730;9.156;2023-04-15T07:15:58;9.00;;;5.95;;
8435;SDS011;4255;48.730;9.156;2023-04-15T07:18:24;8.73;;;7.57;;
8435;SDS011;4255;48.730;9.156;2023-04-15T07:20:50;12.40;;;8.13;;
8435;SDS011;4255;48.730;9.156;2023-04-15T07:23:15;13.30;;;7.90;;
8435;SDS011;4255;48.730;9.156;2023-04-15T07:25:41;13.43;;;8.40;;
8435;SDS011;4255;48.730;9.156;2023-04-15T07:28:06;15.10;;;11.80;;
8435;SDS011;4255;48.730;9.156;2023-04-15T07:30:32;13.20;;;8.07;;
8435;SDS011;4255;48.730;9.156;2023-04-15T07:32:58;9.13;;;8.18;;
8435;SDS011;4255;48.730;9.156;2023-04-15T07:35:24;12.00;;;8.47;;
8435;SDS011;4255;48.730;9.156;2023-04-15T07:37:51;10.50;;;7.30;;
8435;SDS011;4255;48.730;9.156;2023-04-15T07:40:17;13.43;;;7.97;;
8435;SDS011;4255;48.730;9.156;2023-04-15T07:42:43;12.30;;;7.13;;
8435;SDS011;4255;48.730;9.156;2023-04-15T07:45:09;10.20;;;6.90;;
8435;SDS011;4255;48.730;9.156;2023-04-15T07:47:35;14.80;;;6.23;;
8435;SDS011;4255;48.730;9.156;2023-04-15T07:50:01;7.00;;;5.93;;
8435;SDS011;4255;48.730;9.156;2023-04-15T07:52:26;9.33;;;5.97;;
8435;SDS011;4255;48.730;9.156;2023-04-15T07:54:52;8.30;;;6.67;;
8435;SDS011;4255;48.730;9.156;2023-04-15T07:57:18;11.43;;;5.60;;
8435;SDS011;4255;48.730;9.156;2023-04-15T07:59:44;8.90;;;5.80;;
8435;SDS011;4255;48.730;9.156;2023-04-15T08:02:10;9.77;;;6.30;;
8435;SDS011;4255;48.730;9.156;2023-04-15T08:04:36;11.33;;;6.67;;
8435;SDS011;4255;48.730;9.156;2023-04-15T08:07:02;7.97;;;6.97;;
8435;SDS011;4255;48.730;9.156;2023-04-15T08:09:28;8.70;;;6.47;;
8435;SDS011;4255;48.730;9.156;2023-04-15T08:11:54;9.30;;;8.30;;
8435;SDS011;4255;48.730;9.156;2023-04-15T08:14:21;12.33;;;7.37;;
8435;SDS011;4255;48.730;9.156;2023-04-15T08:16:46;11.43;;;7.17;;
8435;SDS011;4255;48.730;9.156;2023-04-15T08:19:12;9.67;;;6.77;;
8435;SDS011;4255;48.730;9.156;2023-04-15T08:21:38;9.20;;;6.53;;
8435;SDS011;4255;48.730;9.156;2023-04-15T08:24:04;7.23;;;6.30;;
8435;SDS011;4255;48.730;9.156;2023-04-15T08:26:30;7.43;;;4.70;;
8435;SDS011;4255;48.730;9.156;2023-04-15T08:28:56;11.40;;;4.20;;
8435;SDS011;4255;48.730;9.156;2023-04-15T08:31:22;5.00;;;4.20;;
8435;SDS011;4255;48.730;9.156;2023-04-15T08:33:48;8.43;;;3.87;;
8435;SDS011;4255;48.730;9.156;2023-04-15T08:36:16;9.50;;;6.07;;
8435;SDS011;4255;48.730;9.156;2023-04-15T08:38:43;11.67;;;5.50;;
8435;SDS011;4255;48.730;9.156;2023-04-15T08:41:11;5.67;;;4.33;;
8435;SDS011;4255;48.730;9.156;2023-04-15T08:46:36;7.70;;;4.53;;
8435;SDS011;4255;48.730;9.156;2023-04-15T08:49:03;4.60;;;3.87;;
8435;SDS011;4255;48.730;9.156;2023-04-15T08:51:29;4.00;;;3.60;;
8435;SDS011;4255;48.730;9.156;2023-04-15T08:53:56;5.50;;;3.80;;
8435;SDS011;4255;48.730;9.156;2023-04-15T08:56:23;8.03;;;5.10;;
8435;SDS011;4255;48.730;9.156;2023-04-15T08:58:50;7.10;;;4.23;;
8435;SDS011;4255;48.730;9.156;2023-04-15T09:01:17;5.70;;;4.47;;
8435;SDS011;4255;48.730;9.156;2023-04-15T09:03:42;5.57;;;3.83;;
8435;SDS011;4255;48.730;9.156;2023-04-15T09:06:08;4.13;;;3.70;;
8435;SDS011;4255;48.730;9.156;2023-04-15T09:08:34;6.93;;;5.03;;
8435;SDS011;4255;48.730;9.156;2023-04-15T09:11:01;3.67;;;3.37;;
8435;SDS011;4255;48.730;9.156;2023-04-15T09:13:27;5.40;;;3.67;;
8435;SDS011;4255;48.730;9.156;2023-04-15T09:15:53;4.77;;;3.13;;
8435;SDS011;4255;48.730;9.156;2023-04-15T09:18:29;5.53;;;4.40;;
8435;SDS011;4255;48.730;9.156;2023-04-15T09:20:56;5.03;;;3.97;;
8435;SDS011;4255;48.730;9.156;2023-04-15T09:23:32;4.80;;;3.07;;
8435;SDS011;4255;48.730;9.156;2023-04-15T09:25:59;4.77;;;3.60;;
8435;SDS011;4255;48.730;9.156;2023-04-15T09:28:26;4.30;;;3.40;;
8435;SDS011;4255;48.730;9.156;2023-04-15T09:30:56;9.17;;;5.47;;
8435;SDS011;4255;48.730;9.156;2023-04-15T09:33:22;7.53;;;6.00;;
8435;SDS011;4255;48.730;9.156;2023-04-15T09:35:58;5.87;;;3.73;;
8435;SDS011;4255;48.730;9.156;2023-04-15T09:38:31;3.40;;;3.10;;
8435;SDS011;4255;48.730;9.156;2023-04-15T09:40:57;4.77;;;3.00;;
8435;SDS011;4255;48.730;9.156;2023-04-15T09:43:38;4.00;;;3.60;;
8435;SDS011;4255;48.730;9.156;2023-04-15T09:46:04;8.20;;;3.20;;
8435;SDS011;4255;48.730;9.156;2023-04-15T09:48:30;3.23;;;3.03;;
8435;SDS011;4255;48.730;9.156;2023-04-15T09:50:59;4.33;;;3.90;;
8435;SDS011;4255;48.730;9.156;2023-04-15T09:53:26;3.50;;;3.20;;
8435;SDS011;4255;48.730;9.156;2023-04-15T09:58:20;3.70;;;3.33;;
8435;SDS011;4255;48.730;9.156;2023-04-15T10:00:47;4.40;;;3.63;;
8435;SDS011;4255;48.730;9.156;2023-04-15T10:03:18;3.87;;;3.50;;
8435;SDS011;4255;48.730;9.156;2023-04-15T10:05:50;3.90;;;3.60;;
8435;SDS011;4255;48.730;9.156;2023-04-15T10:08:17;6.63;;;3.80;;
8435;SDS011;4255;48.730;9.156;2023-04-15T10:10:45;3.13;;;2.90;;
8435;SDS011;4255;48.730;9.156;2023-04-15T10:13:12;6.23;;;3.40;;
8435;SDS011;4255;48.730;9.156;2023-04-15T10:15:43;4.83;;;2.83;;
8435;SDS011;4255;48.730;9.156;2023-04-15T10:18:15;4.57;;;4.10;;
8435;SDS011;4255;48.730;9.156;2023-04-15T10:20:43;4.93;;;3.43;;
8435;SDS011;4255;48.730;9.156;2023-04-15T10:23:10;3.47;;;3.20;;
8435;SDS011;4255;48.730;9.156;2023-04-15T10:25:36;7.13;;;4.17;;
8435;SDS011;4255;48.730;9.156;2023-04-15T10:28:02;4.77;;;3.40;;
8435;SDS011;4255;48.730;9.156;2023-04-15T10:30:31;3.67;;;3.37;;
8435;SDS011;4255;48.730;9.156;2023-04-15T10:32:57;4.47;;;3.80;;
8435;SDS011;4255;48.730;9.156;2023-04-15T10:35:24;4.50;;;4.03;;
8435;SDS011;4255;48.730;9.156;2023-04-15T10:37:50;6.17;;;5.07;;
8435;SDS011;4255;48.730;9.156;2023-04-15T10:42:48;5.40;;;3.70;;
8435;SDS011;4255;48.730;9.156;2023-04-15T10:45:17;5.13;;;4.17;;
8435;SDS011;4255;48.730;9.156;2023-04-15T10:47:43;5.20;;;4.50;;
8435;SDS011;4255;48.730;9.156;2023-04-15T10:50:09;6.87;;;4.57;;
8435;SDS011;4255;48.730;9.156;2023-04-15T10:52:36;9.23;;;3.93;;
8435;SDS011;4255;48.730;9.156;2023-04-15T10:55:12;5.60;;;3.70;;
8435;SDS011;4255;48.730;9.156;2023-04-15T10:57:40;9.17;;;3.83;;
8435;SDS011;4255;48.730;9.156;2023-04-15T11:02:39;5.73;;;4.33;;
8435;SDS011;4255;48.730;9.156;2023-04-15T11:05:18;5.40;;;4.97;;
8435;SDS011;4255;48.730;9.156;2023-04-15T11:12:43;4.10;;;3.70;;
8435;SDS011;4255;48.730;9.156;2023-04-15T11:15:26;4.90;;;4.20;;
8435;SDS011;4255;48.730;9.156;2023-04-15T11:17:56;5.10;;;4.33;;
8435;SDS011;4255;48.730;9.156;2023-04-15T11:20:22;4.40;;;4.00;;
8435;SDS011;4255;48.730;9.156;2023-04-15T11:22:49;5.00;;;4.50;;
8435;SDS011;4255;48.730;9.156;2023-04-15T11:25:26;6.87;;;4.60;;
8435;SDS011;4255;48.730;9.156;2023-04-15T11:27:53;6.40;;;4.60;;
8435;SDS011;4255;48.730;9.156;2023-04-15T11:30:21;4.87;;;4.40;;
8435;SDS011;4255;48.730;9.156;2023-04-15T11:32:51;5.80;;;4.20;;
8435;SDS011;4255;48.730;9.156;2023-04-15T11:35:19;10.27;;;4.80;;
8435;SDS011;4255;48.730;9.156;2023-04-15T11:37:45;4.50;;;4.10;;
8435;SDS011;4255;48.730;9.156;2023-04-15T11:40:12;13.13;;;4.83;;
8435;SDS011;4255;48.730;9.156;2023-04-15T11:42:39;5.90;;;4.63;;
8435;SDS011;4255;48.730;9.156;2023-04-15T11:45:08;7.10;;;4.23;;
8435;SDS011;4255;48.730;9.156;2023-04-15T11:47:36;7.40;;;4.70;;
8435;SDS011;4255;48.730;9.156;2023-04-15T11:50:21;9.33;;;4.40;;
8435;SDS011;4255;48.730;9.156;2023-04-15T11:52:57;5.10;;;4.33;;
8435;SDS011;4255;48.730;9.156;2023-04-15T11:55:25;6.60;;;5.00;;
8435;SDS011;4255;48.730;9.156;2023-04-15T12:00:44;10.83;;;7.43;;
8435;SDS011;4255;48.730;9.156;2023-04-15T12:11:13;8.23;;;5.10;;
8435;SDS011;4255;48.730;9.156;2023-04-15T12:13:43;6.70;;;5.70;;
8435;SDS011;4255;48.730;9.156;2023-04-15T12:16:10;5.90;;;5.27;;
8435;SDS011;4255;48.730;9.156;2023-04-15T12:18:38;4.83;;;4.33;;
8435;SDS011;4255;48.730;9.156;2023-04-15T12:21:10;5.73;;;5.13;;
8435;SDS011;4255;48.730;9.156;2023-04-15T12:23:37;6.03;;;4.97;;
8435;SDS011;4255;48.730;9.156;2023-04-15T12:26:04;9.73;;;5.27;;
8435;SDS011;4255;48.730;9.156;2023-04-15T12:28:32;14.03;;;5.33;;
8435;SDS011;4255;48.730;9.156;2023-04-15T12:31:05;6.27;;;5.10;;
8435;SDS011;4255;48.730;9.156;2023-04-15T12:33:33;6.63;;;4.60;;
8435;SDS011;4255;48.730;9.156;2023-04-15T12:35:59;6.10;;;4.63;;
8435;SDS011;4255;48.730;9.156;2023-04-15T12:38:24;4.50;;;4.10;;
8435;SDS011;4255;48.730;9.156;2023-04-15T12:40:50;6.30;;;4.67;;
8435;SDS011;4255;48.730;9.156;2023-04-15T12:43:16;7.27;;;4.40;;
8435;SDS011;4255;48.730;9.156;2023-04-15T12:45:41;7.80;;;5.13;;
8435;SDS011;4255;48.730;9.156;2023-04-15T12:48:07;5.33;;;4.17;;
8435;SDS011;4255;48.730;9.156;2023-04-15T12:50:33;5.77;;;5.17;;
8435;SDS011;4255;48.730;9.156;2023-04-15T12:52:59;5.57;;;4.70;;
8435;SDS011;4255;48.730;9.156;2023-04-15T12:55:25;12.37;;;5.70;;
8435;SDS011;4255;48.730;9.156;2023-04-15T12:57:51;8.13;;;5.50;;
8435;SDS011;4255;48.730;9.156;2023-04-15T13:00:17;8.97;;;5.37;;
8435;SDS011;4255;48.730;9.156;2023-04-15T13:02:43;4.30;;;4.00;;
8435;SDS011;4255;48.730;9.156;2023-04-15T13:05:08;5.20;;;4.70;;
8435;SDS011;4255;48.730;9.156;2023-04-15T13:07:34;7.70;;;5.67;;
8435;SDS011;4255;48.730;9.156;2023-04-15T13:10:00;5.37;;;4.87;;
8435;SDS011;4255;48.730;9.156;2023-04-15T13:12:26;5.20;;;4.73;;
8435;SDS011;4255;48.730;9.156;2023-04-15T13:14:51;5.07;;;4.60;;
8435;SDS011;4255;48.730;9.156;2023-04-15T13:17:17;6.27;;;4.80;;
8435;SDS011;4255;48.730;9.156;2023-04-15T13:19:44;4.77;;;4.40;;
8435;SDS011;4255;48.730;9.156;2023-04-15T13:22:10;4.43;;;4.03;;
8435;SDS011;4255;48.730;9.156;2023-04-15T13:24:36;6.17;;;4.03;;
8435;SDS011;4255;48.730;9.156;2023-04-15T13:27:03;4.33;;;4.03;;
8435;SDS011;4255;48.730;9.156;2023-04-15T13:29:29;4.70;;;4.30;;
8435;SDS011;4255;48.730;9.156;2023-04-15T13:31:55;5.90;;;3.77;;
8435;SDS011;4255;48.730;9.156;2023-04-15T13:34:20;4.97;;;4.33;;
8435;SDS011;4255;48.730;9.156;2023-04-15T13:36:46;6.63;;;4.40;;
8435;SDS011;4255;48.730;9.156;2023-04-15T13:39:12;6.00;;;4.07;;
8435;SDS011;4255;48.730;9.156;2023-04-15T13:41:37;4.43;;;4.13;;
8435;SDS011;4255;48.730;9.156;2023-04-15T13:44:04;8.68;;;4.10;;
8435;SDS011;4255;48.730;9.156;2023-04-15T13:46:30;6.00;;;4.83;;
8435;SDS011;4255;48.730;9.156;2023-04-15T13:48:55;5.10;;;3.60;;
8435;SDS011;4255;48.730;9.156;2023-04-15T13:51:21;3.93;;;3.63;;
8435;SDS011;4255;48.730;9.156;2023-04-15T13:53:47;4.30;;;3.77;;
8435;SDS011;4255;48.730;9.156;2023-04-15T13:56:12;3.70;;;3.40;;
8435;SDS011;4255;48.730;9.156;2023-04-15T13:58:39;6.07;;;4.03;;
8435;SDS011;4255;48.730;9.156;2023-04-15T14:01:05;4.03;;;3.13;;
8435;SDS011;4255;48.730;9.156;2023-04-15T14:03:31;3.47;;;3.17;;
8435;SDS011;4255;48.730;9.156;2023-04-15T14:05:57;3.83;;;2.60;;
8435;SDS011;4255;48.730;9.156;2023-04-15T14:08:23;3.33;;;2.70;;
8435;SDS011;4255;48.730;9.156;2023-04-15T14:10:49;3.90;;;3.17;;
8435;SDS011;4255;48.730;9.156;2023-04-15T14:13:15;5.03;;;2.87;;
8435;SDS011;4255;48.730;9.156;2023-04-15T14:15:41;5.90;;;2.53;;
8435;SDS011;4255;48.730;9.156;2023-04-15T14:18:06;2.60;;;2.40;;
8435;SDS011;4255;48.730;9.156;2023-04-15T14:20:32;3.30;;;2.50;;
8435;SDS011;4255;48.730;9.156;2023-04-15T14:22:58;2.70;;;2.50;;
8435;SDS011;4255;48.730;9.156;2023-04-15T14:25:23;3.33;;;2.40;;
8435;SDS011;4255;48.730;9.156;2023-04-15T14:27:51;2.10;;;1.83;;
8435;SDS011;4255;48.730;9.156;2023-04-15T14:30:16;2.77;;;2.50;;
8435;SDS011;4255;48.730;9.156;2023-04-15T14:32:42;2.50;;;2.30;;
8435;SDS011;4255;48.730;9.156;2023-04-15T14:35:07;2.73;;;2.53;;
8435;SDS011;4255;48.730;9.156;2023-04-15T14:37:33;3.30;;;2.20;;
8435;SDS011;4255;48.730;9.156;2023-04-15T14:39:58;2.53;;;2.33;;
8435;SDS011;4255;48.730;9.156;2023-04-15T14:42:24;4.50;;;2.53;;
8435;SDS011;4255;48.730;9.156;2023-04-15T14:44:50;2.70;;;2.50;;
8435;SDS011;4255;48.730;9.156;2023-04-15T14:47:15;3.10;;;2.53;;
8435;SDS011;4255;48.730;9.156;2023-04-15T14:49:41;4.37;;;2.60;;
8435;SDS011;4255;48.730;9.156;2023-04-15T14:52:07;2.43;;;2.30;;
8435;SDS011;4255;48.730;9.156;2023-04-15T14:54:32;2.93;;;2.70;;
8435;SDS011;4255;48.730;9.156;2023-04-15T14:56:58;3.13;;;2.80;;
8435;SDS011;4255;48.730;9.156;2023-04-15T14:59:23;5.17;;;3.33;;
8435;SDS011;4255;48.730;9.156;2023-04-15T15:01:49;2.60;;;2.40;;
8435;SDS011;4255;48.730;9.156;2023-04-15T15:04:15;5.93;;;3.10;;
8435;SDS011;4255;48.730;9.156;2023-04-15T15:06:40;2.77;;;2.57;;
8435;SDS011;4255;48.730;9.156;2023-04-15T15:09:06;3.33;;;3.13;;
8435;SDS011;4255;48.730;9.156;2023-04-15T15:11:32;4.03;;;3.03;;
8435;SDS011;4255;48.730;9.156;2023-04-15T15:13:58;3.10;;;2.80;;
8435;SDS011;4255;48.730;9.156;2023-04-15T15:16:23;4.90;;;3.40;;
8435;SDS011;4255;48.730;9.156;2023-04-15T15:18:49;11.87;;;5.67;;
8435;SDS011;4255;48.730;9.156;2023-04-15T15:21:15;4.40;;;2.77;;
8435;SDS011;4255;48.730;9.156;2023-04-15T15:23:41;3.10;;;2.80;;
8435;SDS011;4255;48.730;9.156;2023-04-15T15:26:06;3.83;;;2.80;;
8435;SDS011;4255;48.730;9.156;2023-04-15T15:28:32;3.30;;;3.00;;
8435;SDS011;4255;48.730;9.156;2023-04-15T15:30:58;5.57;;;2.80;;